Time;durP1;ratioP1;P1;durP2;ratioP2;P2;SDS_P1;SDS_P2;PMS_P1;PMS_P2;Temp;Humidity;BMP_temperature;BMP_pressure;BME280_temperature;BME280_humidity;BME280_pressure;Samples;Min_cycle;Max_cycle;Signal;HPM_P1;HPM_P2
2024/01/03 00:00:41;;;;;;;12.70;7.70;;;;;;;15.74;39.99;100493.91;102230;1289;61806;-77
2024/01/03 00:03:07;;;;;;;11.60;7.80;;;;;;;15.74;39.97;100494.77;102459;1290;61575;-77
2024/01/03 00:05:42;;;;;;;10.90;7.10;;;;;;;15.74;40.01;100494.27;102760;1282;62236;-77
2024/01/03 00:08:14;;;;;;;11.20;7.60;;;;;;;15.74;40.02;100485.21;103323;1282;61315;-77
2024/01/03 00:10:49;;;;;;;11.60;7.40;;;;;;;15.74;39.94;100482.73;103347;1282;73469;-77
2024/01/03 00:13:39;;;;;;;10.20;7.00;;;;;;;15.73;40.00;100482.21;103266;1282;73142;-77
2024/01/03 00:16:07;;;;;;;11.60;7.50;;;;;;;15.73;40.04;100481.34;103485;1284;61347;-77
2024/01/03 00:18:43;;;;;;;14.10;7.20;;;;;;;15.73;39.97;100482.05;103431;1282;60420;-77
2024/01/03 00:21:11;;;;;;;10.10;7.20;;;;;;;15.73;39.98;100483.14;103374;1282;72299;-77
2024/01/03 00:23:38;;;;;;;10.90;7.20;;;;;;;15.72;40.08;100478.17;103408;1282;74254;-77
2024/01/03 00:26:07;;;;;;;12.90;8.00;;;;;;;15.73;39.97;100475.88;103315;1286;61368;-77
2024/01/03 00:28:33;;;;;;;;;;;;;;;15.73;40.02;100476.59;103220;1282;61336;-77
2024/01/03 00:30:59;;;;;;;10.50;7.00;;;;;;;15.70;40.07;100470.17;103466;1281;60249;-77
2024/01/03 00:33:24;;;;;;;10.20;7.10;;;;;;;15.71;40.03;100475.98;103279;1281;61261;-77
2024/01/03 00:35:51;;;;;;;10.60;7.40;;;;;;;15.71;40.05;100474.92;103262;1281;61375;-77
2024/01/03 00:38:17;;;;;;;12.30;7.00;;;;;;;15.71;39.94;100479.14;103531;1282;59996;-77
2024/01/03 00:41:09;;;;;;;10.70;6.70;;;;;;;15.71;39.99;100474.91;103320;1286;61234;-77
2024/01/03 00:43:37;;;;;;;9.90;7.00;;;;;;;15.71;39.97;100472.79;102934;1286;74469;-77
2024/01/03 00:46:03;;;;;;;9.00;6.50;;;;;;;15.71;40.00;100477.02;102810;1289;62314;-77
2024/01/03 00:48:29;;;;;;;9.90;6.90;;;;;;;15.71;40.02;100475.41;102803;1285;59854;-77
2024/01/03 00:50:54;;;;;;;10.00;7.00;;;;;;;15.71;40.05;100477.55;102678;1286;61537;-77
2024/01/03 00:53:20;;;;;;;11.00;7.10;;;;;;;15.71;40.03;100468.86;102792;1286;61417;-77
2024/01/03 00:55:46;;;;;;;11.00;6.90;;;;;;;15.71;40.00;100470.80;102971;1286;61375;-77
2024/01/03 00:58:12;;;;;;;10.50;6.80;;;;;;;15.71;40.03;100468.52;102993;1286;61366;-77
2024/01/03 01:00:37;;;;;;;11.70;7.40;;;;;;;15.71;40.04;100471.34;102950;1286;61375;-77
2024/01/03 01:03:04;;;;;;;11.40;7.30;;;;;;;15.72;40.00;100473.61;102977;1289;60075;-77
2024/01/03 01:05:29;;;;;;;11.10;6.50;;;;;;;15.71;40.00;100476.46;102924;1285;62276;-78
2024/01/03 01:07:55;;;;;;;10.00;6.60;;;;;;;15.72;39.99;100478.60;102937;1286;61358;-77
2024/01/03 01:10:21;;;;;;;10.20;7.00;;;;;;;15.71;40.06;100477.91;102990;1286;61410;-77
2024/01/03 01:12:46;;;;;;;9.10;6.90;;;;;;;15.71;40.00;100470.10;103018;1286;61624;-77
2024/01/03 01:15:12;;;;;;;12.00;7.10;;;;;;;15.71;40.01;100473.48;102955;1286;72351;-77
2024/01/03 01:17:38;;;;;;;10.30;6.40;;;;;;;15.71;40.05;100480.02;102768;1291;61381;-77
2024/01/03 01:20:04;;;;;;;10.60;6.80;;;;;;;15.71;39.96;100479.52;102991;1282;61455;-77
2024/01/03 01:22:30;;;;;;;11.20;6.70;;;;;;;15.71;40.05;100476.84;103316;1282;61340;-77
2024/01/03 01:24:55;;;;;;;11.80;7.10;;;;;;;15.71;39.95;100472.42;103217;1286;61448;-77
2024/01/03 01:27:21;;;;;;;10.10;6.60;;;;;;;15.71;39.99;100466.91;103349;1281;61388;-77
2024/01/03 01:29:47;;;;;;;10.20;6.90;;;;;;;15.71;40.07;100465.88;103284;1282;61464;-77
2024/01/03 01:32:13;;;;;;;10.30;6.50;;;;;;;15.70;40.02;100472.27;103320;1282;60001;-77
2024/01/03 01:34:38;;;;;;;10.40;6.70;;;;;;;15.71;40.00;100475.81;103464;1282;61363;-77
2024/01/03 01:37:04;;;;;;;10.30;7.10;;;;;;;15.71;40.05;100483.25;103250;1282;61331;-77
2024/01/03 01:39:30;;;;;;;10.10;6.40;;;;;;;15.71;40.00;100478.46;103225;1285;61383;-77
2024/01/03 01:41:55;;;;;;;10.20;6.80;;;;;;;15.71;40.02;100483.60;103312;1282;61293;-77
2024/01/03 01:44:22;;;;;;;9.70;6.50;;;;;;;15.71;40.01;100483.27;103365;1282;61384;-77
2024/01/03 01:46:47;;;;;;;9.70;6.90;;;;;;;15.70;39.94;100479.55;103291;1285;61192;-77
2024/01/03 01:49:16;;;;;;;11.00;6.30;;;;;;;15.70;39.98;100472.65;103278;1282;62272;-77
2024/01/03 01:51:41;;;;;;;10.10;6.80;;;;;;;15.70;39.71;100465.54;103405;1283;74466;-77
2024/01/03 01:54:07;;;;;;;11.50;6.40;;;;;;;15.70;39.95;100466.59;103700;1282;62149;-77
2024/01/03 01:56:33;;;;;;;10.20;6.60;;;;;;;15.70;39.99;100466.08;103295;1282;61375;-77
2024/01/03 01:58:58;;;;;;;10.00;6.50;;;;;;;15.69;39.97;100457.77;103291;1285;60147;-77
2024/01/03 02:01:24;;;;;;;9.80;6.40;;;;;;;15.70;39.97;100458.46;103328;1282;61221;-77
2024/01/03 02:03:50;;;;;;;9.20;6.20;;;;;;;15.69;39.93;100448.88;103265;1282;61381;-77
2024/01/03 02:06:16;;;;;;;9.70;6.50;;;;;;;15.69;39.98;100444.11;103150;1283;61484;-77
2024/01/03 02:08:41;;;;;;;8.70;5.70;;;;;;;15.69;39.98;100440.75;103326;1282;61753;-77
2024/01/03 02:11:07;;;;;;;9.00;6.30;;;;;;;15.69;39.94;100435.25;103138;1282;61495;-77
2024/01/03 02:13:33;;;;;;;8.80;6.20;;;;;;;15.69;39.97;100433.99;103513;1286;61404;-77
2024/01/03 02:15:59;;;;;;;11.10;6.50;;;;;;;15.69;39.91;100425.51;103322;1282;60145;-77
2024/01/03 02:18:25;;;;;;;10.50;6.30;;;;;;;15.69;39.90;100427.28;103291;1282;61347;-77
2024/01/03 02:20:51;;;;;;;9.40;6.20;;;;;;;15.69;39.94;100427.28;103332;1282;61412;-77
2024/01/03 02:23:16;;;;;;;8.50;5.50;;;;;;;15.69;39.90;100418.05;103151;1288;61398;-77
2024/01/03 02:25:42;;;;;;;10.00;6.30;;;;;;;15.69;40.01;100415.39;103560;1285;61394;-77
2024/01/03 02:28:09;;;;;;;8.30;6.00;;;;;;;15.69;39.98;100410.64;103286;1282;61364;-77
2024/01/03 02:30:37;;;;;;;9.90;6.70;;;;;;;15.69;39.96;100406.73;103427;1282;61263;-77
2024/01/03 02:33:03;;;;;;;8.90;5.60;;;;;;;15.68;40.10;100402.66;103340;1285;61370;-77
2024/01/03 02:35:29;;;;;;;9.80;6.30;;;;;;;15.69;39.95;100403.70;103341;1285;61229;-77
2024/01/03 02:37:54;;;;;;;9.70;6.50;;;;;;;15.68;39.93;100403.73;103324;1282;61357;-77
2024/01/03 02:40:20;;;;;;;8.80;5.80;;;;;;;15.68;39.94;100402.85;103385;1282;61374;-77
2024/01/03 02:42:46;;;;;;;9.20;6.30;;;;;;;15.68;39.96;100403.73;103350;1285;60210;-77
2024/01/03 02:45:11;;;;;;;9.10;6.00;;;;;;;15.68;39.94;100401.05;103291;1282;61453;-77
2024/01/03 02:47:37;;;;;;;10.30;5.80;;;;;;;15.68;40.02;100397.16;103297;1283;61472;-77
2024/01/03 02:50:03;;;;;;;9.00;5.60;;;;;;;15.68;39.95;100395.92;103329;1287;60053;-77
2024/01/03 02:52:28;;;;;;;9.30;5.70;;;;;;;15.68;39.99;100396.09;103332;1281;61840;-77
2024/01/03 02:54:54;;;;;;;10.70;6.10;;;;;;;15.68;39.92;100389.89;103310;1281;61479;-77
2024/01/03 02:57:19;;;;;;;9.60;6.40;;;;;;;15.68;39.98;100385.83;103339;1282;61300;-77
2024/01/03 02:59:45;;;;;;;10.30;5.80;;;;;;;15.68;40.01;100391.33;103717;1286;61358;-77
2024/01/03 03:02:11;;;;;;;9.50;5.80;;;;;;;15.68;39.89;100388.67;103301;1285;62058;-77
2024/01/03 03:04:36;;;;;;;9.30;6.20;;;;;;;15.67;39.90;100377.52;103413;1282;61469;-77
2024/01/03 03:07:02;;;;;;;9.90;6.00;;;;;;;15.68;39.95;100381.04;103287;1282;61363;-77
2024/01/03 03:09:28;;;;;;;10.90;5.60;;;;;;;15.67;39.97;100378.23;103276;1282;61283;-77
2024/01/03 03:11:53;;;;;;;8.70;5.80;;;;;;;15.67;39.98;100367.41;103221;1287;61366;-77
2024/01/03 03:14:19;;;;;;;8.50;6.00;;;;;;;15.67;40.09;100359.08;103128;1285;61417;-77
2024/01/03 03:16:45;;;;;;;9.30;5.80;;;;;;;15.67;40.04;100360.33;103350;1282;59960;-77
2024/01/03 03:19:10;;;;;;;8.90;5.70;;;;;;;15.67;39.96;100367.60;103413;1285;61337;-77
2024/01/03 03:21:36;;;;;;;9.60;6.10;;;;;;;15.67;39.94;100361.41;103215;1286;61404;-77
2024/01/03 03:24:02;;;;;;;8.50;5.50;;;;;;;15.67;39.95;100361.40;103250;1282;60125;-77
2024/01/03 03:26:28;;;;;;;8.70;5.90;;;;;;;15.67;39.97;100352.17;103181;1287;61273;-77
2024/01/03 03:28:54;;;;;;;8.40;5.60;;;;;;;15.67;39.94;100353.58;103355;1282;61315;-77
2024/01/03 03:31:19;;;;;;;8.60;5.80;;;;;;;15.67;39.99;100366.89;103342;1284;61379;-77
2024/01/03 03:33:45;;;;;;;9.40;5.20;;;;;;;15.67;39.84;100364.96;103312;1282;61258;-77
2024/01/03 03:36:12;;;;;;;10.00;5.80;;;;;;;15.67;39.93;100362.66;103351;1283;61396;-77
2024/01/03 03:38:37;;;;;;;9.70;5.60;;;;;;;15.67;39.96;100362.85;103358;1286;62188;-77
2024/01/03 03:41:08;;;;;;;8.40;5.20;;;;;;;15.66;39.99;100358.59;103259;1283;61160;-77
2024/01/03 03:43:33;;;;;;;9.50;5.70;;;;;;;15.66;39.99;100356.30;103360;1285;75337;-77
2024/01/03 03:45:59;;;;;;;8.40;5.90;;;;;;;15.66;40.03;100354.70;103360;1282;61379;-77
2024/01/03 03:48:25;;;;;;;8.30;5.30;;;;;;;15.66;39.99;100351.68;103255;1287;62289;-77
2024/01/03 03:50:51;;;;;;;11.30;6.20;;;;;;;15.66;39.98;100344.09;103300;1283;61359;-77
2024/01/03 03:53:16;;;;;;;9.20;5.70;;;;;;;15.66;40.04;100342.29;103134;1282;61214;-77
2024/01/03 03:55:42;;;;;;;8.60;5.80;;;;;;;15.66;39.95;100343.69;103403;1282;61660;-77
2024/01/03 03:58:08;;;;;;;8.40;5.70;;;;;;;15.66;40.01;100339.98;103332;1282;61333;-77
2024/01/03 04:00:34;;;;;;;8.90;5.70;;;;;;;15.66;39.93;100333.26;103345;1282;60001;-77
2024/01/03 04:02:59;;;;;;;8.30;5.40;;;;;;;15.66;39.91;100332.20;103361;1282;61483;-77
2024/01/03 04:05:25;;;;;;;9.90;5.50;;;;;;;15.66;39.84;100336.29;103279;1282;61404;-77
2024/01/03 04:07:51;;;;;;;8.90;5.60;;;;;;;15.65;39.90;100341.26;103318;1282;61377;-77
2024/01/03 04:10:17;;;;;;;8.20;5.50;;;;;;;15.65;39.91;100338.97;103343;1285;61363;-77
2024/01/03 04:12:42;;;;;;;8.10;5.50;;;;;;;15.65;40.00;100340.39;103182;1282;62220;-77
2024/01/03 04:15:08;;;;;;;8.80;5.20;;;;;;;15.65;39.93;100330.09;103273;1287;60036;-77
2024/01/03 04:17:34;;;;;;;7.70;5.30;;;;;;;15.65;39.93;100325.66;103231;1287;61399;-77
2024/01/03 04:20:01;;;;;;;8.50;5.30;;;;;;;15.65;39.94;100325.33;103311;1285;62149;-77
2024/01/03 04:22:26;;;;;;;8.50;5.20;;;;;;;15.65;39.93;100317.88;103300;1285;60090;-77
2024/01/03 04:24:52;;;;;;;8.50;5.50;;;;;;;15.65;39.95;100318.40;103325;1285;61372;-77
2024/01/03 04:27:18;;;;;;;8.10;5.00;;;;;;;15.65;39.90;100317.00;103308;1282;61396;-77
2024/01/03 04:29:43;;;;;;;7.20;4.80;;;;;;;15.64;39.91;100321.44;103312;1283;74508;-77
2024/01/03 04:32:09;;;;;;;8.00;5.40;;;;;;;15.64;39.94;100321.83;103334;1282;61351;-77
2024/01/03 04:34:36;;;;;;;8.30;5.30;;;;;;;15.65;39.97;100321.27;103321;1285;61261;-77
2024/01/03 04:37:03;;;;;;;9.80;5.40;;;;;;;15.65;40.04;100329.40;103322;1285;61300;-77
2024/01/03 04:39:30;;;;;;;6.90;4.90;;;;;;;15.65;39.95;100328.90;103163;1282;75516;-77
2024/01/03 04:41:55;;;;;;;7.30;5.10;;;;;;;15.65;40.04;100326.94;103337;1283;60261;-77
2024/01/03 04:44:21;;;;;;;8.40;5.50;;;;;;;15.65;39.98;100324.42;103293;1281;61433;-77
2024/01/03 04:46:46;;;;;;;8.90;5.00;;;;;;;15.65;39.94;100323.00;103387;1284;61332;-77
2024/01/03 04:49:12;;;;;;;9.50;4.90;;;;;;;15.66;39.89;100321.91;103363;1283;61244;-77
2024/01/03 04:51:38;;;;;;;8.10;5.10;;;;;;;15.66;39.82;100322.61;103278;1282;74762;-77
2024/01/03 04:54:04;;;;;;;7.90;5.50;;;;;;;15.65;39.81;100318.89;103372;1282;61396;-77
2024/01/03 04:56:30;;;;;;;9.10;4.90;;;;;;;15.66;39.82;100323.66;103192;1281;61245;-77
2024/01/03 04:58:55;;;;;;;8.10;5.10;;;;;;;15.66;39.72;100328.30;103307;1285;61302;-77
2024/01/03 05:01:21;;;;;;;8.00;4.90;;;;;;;15.66;39.79;100325.78;103255;1282;61411;-77
2024/01/03 05:03:47;;;;;;;7.80;4.80;;;;;;;15.66;39.74;100323.14;103268;1282;60095;-77
2024/01/03 05:06:13;;;;;;;9.30;5.20;;;;;;;15.66;39.69;100326.67;103372;1288;61387;-77
2024/01/03 05:08:38;;;;;;;8.50;5.10;;;;;;;15.66;39.70;100331.64;103403;1285;61388;-78
2024/01/03 05:11:04;;;;;;;8.90;5.30;;;;;;;15.66;39.69;100334.30;103398;1283;61359;-77
2024/01/03 05:13:30;;;;;;;8.40;4.80;;;;;;;15.66;39.67;100335.72;103612;1285;61461;-78
2024/01/03 05:15:56;;;;;;;8.20;4.80;;;;;;;15.66;39.66;100340.35;103378;1283;61383;-77
2024/01/03 05:18:23;;;;;;;8.80;5.00;;;;;;;15.66;39.60;100343.20;103379;1284;62367;-77
2024/01/03 05:20:48;;;;;;;7.20;4.80;;;;;;;15.65;39.62;100337.70;103369;1288;61566;-77
2024/01/03 05:23:14;;;;;;;8.30;4.60;;;;;;;15.65;39.67;100332.75;103283;1285;61379;-77
2024/01/03 05:25:40;;;;;;;7.70;5.00;;;;;;;15.65;39.57;100328.33;103449;1281;61354;-77
2024/01/03 05:28:06;;;;;;;7.30;5.10;;;;;;;15.65;39.63;100323.73;103319;1283;61413;-77
2024/01/03 05:30:31;;;;;;;9.30;5.20;;;;;;;15.64;39.55;100322.70;103336;1283;61371;-77
2024/01/03 05:32:57;;;;;;;8.40;5.50;;;;;;;15.64;39.58;100318.27;103470;1283;61492;-78
2024/01/03 05:35:22;;;;;;;8.40;5.30;;;;;;;15.64;39.53;100314.76;103812;1282;60013;-77
2024/01/03 05:37:51;;;;;;;7.90;4.90;;;;;;;15.65;39.54;100315.95;103529;1281;61497;-77
2024/01/03 05:40:18;;;;;;;8.90;5.20;;;;;;;15.64;39.54;100319.86;103390;1282;62303;-77
2024/01/03 05:42:44;;;;;;;8.80;5.40;;;;;;;15.65;39.54;100320.85;104140;1286;60078;-78
2024/01/03 05:45:09;;;;;;;9.20;5.20;;;;;;;15.67;39.46;100327.52;103778;1290;61480;-77
2024/01/03 05:47:35;;;;;;;8.60;5.00;;;;;;;15.68;39.48;100321.59;103589;1282;62031;-77
2024/01/03 05:50:01;;;;;;;7.00;4.60;;;;;;;15.71;39.52;100317.89;104243;1282;59145;-78
2024/01/03 05:52:26;;;;;;;6.90;4.60;;;;;;;15.74;39.51;100314.35;103554;1283;59990;-77
2024/01/03 05:54:52;;;;;;;7.80;4.90;;;;;;;15.77;39.54;100312.04;103575;1283;61343;-77
2024/01/03 05:57:18;;;;;;;6.80;4.70;;;;;;;15.81;39.47;100309.19;103453;1281;72875;-78
2024/01/03 05:59:44;;;;;;;8.30;5.00;;;;;;;15.85;39.49;100306.65;103562;1282;61468;-77
2024/01/03 06:02:10;;;;;;;8.20;4.90;;;;;;;15.89;39.44;100309.09;103346;1286;61736;-78
2024/01/03 06:04:36;;;;;;;7.80;5.20;;;;;;;15.94;39.45;100306.30;103270;1282;60015;-77
2024/01/03 06:07:02;;;;;;;8.80;4.90;;;;;;;15.98;39.46;100298.66;103567;1281;61266;-78
2024/01/03 06:09:27;;;;;;;10.60;5.30;;;;;;;16.01;39.46;100299.35;104194;1286;61378;-79
2024/01/03 06:11:53;;;;;;;8.80;4.60;;;;;;;16.05;39.41;100293.11;104613;1281;61379;-78
2024/01/03 06:14:19;;;;;;;7.60;4.60;;;;;;;16.08;39.32;100295.20;103757;1281;61231;-78
2024/01/03 06:16:44;;;;;;;7.90;5.40;;;;;;;16.13;39.27;100295.84;103534;1282;61401;-77
2024/01/03 06:19:10;;;;;;;7.90;5.20;;;;;;;16.16;39.25;100296.38;103366;1282;61394;-78
2024/01/03 06:21:37;;;;;;;8.50;5.10;;;;;;;16.19;39.18;100293.39;103318;1281;62277;-77
2024/01/03 06:24:02;;;;;;;8.40;4.80;;;;;;;16.21;39.24;100298.01;103994;1281;59070;-78
2024/01/03 06:26:30;;;;;;;7.80;4.80;;;;;;;16.24;39.13;100297.64;103390;1286;61439;-77
2024/01/03 06:28:57;;;;;;;9.70;5.30;;;;;;;16.28;39.08;100300.48;103519;1281;61237;-77
2024/01/03 06:31:22;;;;;;;7.40;4.50;;;;;;;16.30;39.13;100299.65;103517;1282;60036;-77
2024/01/03 06:33:49;;;;;;;9.40;5.10;;;;;;;16.32;39.00;100301.47;103535;1282;61371;-77
2024/01/03 06:36:14;;;;;;;7.70;5.00;;;;;;;16.35;39.03;100301.11;103918;1282;60012;-78
2024/01/03 06:38:40;;;;;;;9.40;5.20;;;;;;;16.38;38.93;100292.27;104264;1284;59881;-77
2024/01/03 06:41:07;;;;;;;8.50;4.80;;;;;;;16.40;39.00;100283.77;104160;1282;73267;-77
2024/01/03 06:43:32;;;;;;;8.10;4.40;;;;;;;16.42;38.94;100276.35;104304;1283;74472;-78
2024/01/03 06:45:58;;;;;;;8.00;5.00;;;;;;;16.43;38.89;100270.42;104009;1285;61388;-77
2024/01/03 06:48:24;;;;;;;7.70;4.80;;;;;;;16.46;38.98;100267.84;104308;1282;61125;-78
2024/01/03 06:50:50;;;;;;;7.50;4.60;;;;;;;16.48;38.91;100263.09;104287;1283;60050;-77
2024/01/03 06:53:16;;;;;;;7.50;5.20;;;;;;;16.49;39.03;100259.97;104539;1281;61478;-77
2024/01/03 06:55:41;;;;;;;8.70;5.40;;;;;;;16.51;38.90;100267.34;104338;1281;59272;-77
2024/01/03 06:58:07;;;;;;;8.80;5.30;;;;;;;16.52;38.84;100263.89;104357;1281;61417;-78
2024/01/03 07:00:33;;;;;;;10.80;5.00;;;;;;;16.54;38.86;100264.30;103714;1282;61336;-77
2024/01/03 07:03:00;;;;;;;12.90;5.30;;;;;;;16.56;38.85;100268.43;103741;1285;60152;-79
2024/01/03 07:05:25;;;;;;;11.00;4.90;;;;;;;16.57;38.87;100262.50;103718;1282;61347;-78
2024/01/03 07:07:51;;;;;;;9.20;5.00;;;;;;;16.59;38.82;100255.98;103897;1280;62142;-77
2024/01/03 07:10:17;;;;;;;8.40;4.90;;;;;;;16.61;38.78;100250.73;104355;1284;60091;-78
2024/01/03 07:12:42;;;;;;;9.90;4.90;;;;;;;16.62;38.82;100242.67;104824;1281;61345;-78
2024/01/03 07:15:09;;;;;;;9.50;5.10;;;;;;;16.63;38.77;100237.98;104467;1282;61449;-78
2024/01/03 07:17:34;;;;;;;9.80;5.10;;;;;;;16.64;38.83;100242.37;104268;1283;74506;-78
2024/01/03 07:20:00;;;;;;;14.10;5.20;;;;;;;16.66;38.78;100240.48;103913;1281;61377;-79
2024/01/03 07:22:26;;;;;;;9.10;5.10;;;;;;;16.67;38.80;100238.26;103925;1281;61266;-77
2024/01/03 07:24:51;;;;;;;9.70;5.80;;;;;;;16.68;38.82;100241.43;103490;1286;61304;-78
2024/01/03 07:27:17;;;;;;;7.70;4.90;;;;;;;16.69;38.77;100245.10;104184;1281;61365;-77
2024/01/03 07:29:43;;;;;;;15.80;4.90;;;;;;;16.70;38.81;100243.40;103847;1281;61430;-79
2024/01/03 07:32:08;;;;;;;9.80;4.90;;;;;;;16.71;38.74;100249.20;104066;1283;59980;-79
2024/01/03 07:34:35;;;;;;;9.60;5.00;;;;;;;16.72;38.77;100247.89;103696;1282;61817;-79
2024/01/03 07:37:00;;;;;;;11.90;4.90;;;;;;;16.73;38.69;100249.59;103972;1282;590512;-78
2024/01/03 07:39:26;;;;;;;8.40;4.90;;;;;;;16.74;38.73;100247.42;104763;1281;59868;-80
2024/01/03 07:41:51;;;;;;;8.00;4.70;;;;;;;16.76;38.72;100253.73;105126;1282;59583;-80
2024/01/03 07:44:17;;;;;;;11.10;4.60;;;;;;;16.77;38.71;100252.95;104828;1284;61398;-78
2024/01/03 07:46:43;;;;;;;12.20;5.00;;;;;;;16.78;38.75;100253.23;104574;1281;61299;-78
2024/01/03 07:49:10;;;;;;;7.80;4.60;;;;;;;16.79;38.66;100251.06;104314;1280;61512;-78
2024/01/03 07:51:38;;;;;;;8.90;5.00;;;;;;;16.79;38.74;100250.33;103288;1285;74517;-78
2024/01/03 07:54:09;;;;;;;9.00;5.00;;;;;;;16.80;38.82;100252.91;103809;1281;61222;-78
2024/01/03 07:56:36;;;;;;;7.70;5.00;;;;;;;16.82;38.74;100255.48;103983;1281;61243;-78
2024/01/03 07:59:02;;;;;;;10.50;5.10;;;;;;;16.83;38.86;100253.65;104129;1281;61280;-78
2024/01/03 08:01:27;;;;;;;7.90;4.70;;;;;;;16.84;38.76;100250.76;103592;1283;61368;-78
2024/01/03 08:03:54;;;;;;;8.70;4.70;;;;;;;16.85;38.89;100247.86;104407;1282;61356;-79
2024/01/03 08:06:20;;;;;;;9.30;4.70;;;;;;;16.86;38.87;100236.07;103918;1282;60400;-78
2024/01/03 08:08:46;;;;;;;9.40;5.00;;;;;;;16.86;38.82;100227.83;103662;1281;60009;-78
2024/01/03 08:11:12;;;;;;;7.90;4.30;;;;;;;16.87;38.88;100220.84;103735;1284;62326;-79
2024/01/03 08:13:38;;;;;;;10.80;4.70;;;;;;;16.89;38.87;100211.54;104234;1284;60007;-78
2024/01/03 08:16:06;;;;;;;10.10;4.70;;;;;;;16.90;38.95;100204.90;104348;1282;59368;-79
2024/01/03 08:18:32;;;;;;;7.50;4.60;;;;;;;16.91;38.84;100217.83;104252;1282;61402;-78
2024/01/03 08:20:58;;;;;;;9.80;4.80;;;;;;;16.92;38.91;100217.88;104252;1282;61214;-78
2024/01/03 08:23:23;;;;;;;11.00;4.80;;;;;;;16.94;38.87;100220.83;104314;1282;60322;-78
2024/01/03 08:25:49;;;;;;;9.00;4.70;;;;;;;16.95;38.91;100227.33;104095;1281;61440;-79
2024/01/03 08:28:15;;;;;;;9.50;4.60;;;;;;;16.96;38.93;100221.23;103564;1282;61529;-78
2024/01/03 08:30:40;;;;;;;10.10;5.20;;;;;;;16.97;39.05;100218.32;103594;1282;61477;-79
2024/01/03 08:33:06;;;;;;;15.20;5.10;;;;;;;16.99;38.94;100221.59;104091;1281;72413;-78
2024/01/03 08:35:31;;;;;;;12.90;5.10;;;;;;;17.00;38.89;100219.23;103856;1281;61359;-78
2024/01/03 08:37:58;;;;;;;11.10;4.50;;;;;;;17.01;38.93;100218.42;103716;1281;60001;-78
2024/01/03 08:40:24;;;;;;;9.90;4.50;;;;;;;17.02;38.90;100218.23;103510;1282;61461;-77
2024/01/03 08:42:49;;;;;;;10.00;5.20;;;;;;;17.03;38.92;100223.83;103497;1282;61455;-78
2024/01/03 08:45:15;;;;;;;12.30;4.70;;;;;;;17.03;38.92;100227.70;103753;1281;60052;-78
2024/01/03 08:47:41;;;;;;;10.50;4.90;;;;;;;17.05;38.91;100225.47;103637;1280;61454;-78
2024/01/03 08:50:07;;;;;;;10.90;4.80;;;;;;;17.05;38.96;100207.11;103569;1281;61401;-77
2024/01/03 08:52:33;;;;;;;10.60;4.80;;;;;;;17.06;38.96;100205.64;103474;1282;60065;-77
2024/01/03 08:54:59;;;;;;;7.80;4.30;;;;;;;17.07;39.04;100205.03;103556;1282;61366;-78
2024/01/03 08:57:25;;;;;;;9.10;4.90;;;;;;;17.07;39.01;100199.36;103687;1282;61411;-78
2024/01/03 08:59:51;;;;;;;8.10;4.60;;;;;;;17.07;38.94;100192.79;103347;1282;61251;-78
2024/01/03 09:02:17;;;;;;;10.40;4.80;;;;;;;17.06;38.91;100193.73;103754;1284;62153;-78
2024/01/03 09:04:43;;;;;;;8.40;4.60;;;;;;;17.04;39.01;100187.98;103710;1284;61190;-78
2024/01/03 09:07:09;;;;;;;11.70;4.40;;;;;;;17.02;39.00;100192.21;103642;1281;61474;-77
2024/01/03 09:09:35;;;;;;;8.80;4.20;;;;;;;17.00;39.05;100188.62;104223;1282;60047;-78
2024/01/03 09:12:00;;;;;;;18.40;5.00;;;;;;;16.97;39.01;100188.45;104261;1282;61229;-78
2024/01/03 09:14:26;;;;;;;12.30;4.70;;;;;;;16.93;39.05;100176.05;104126;1282;61504;-78
2024/01/03 09:16:53;;;;;;;7.70;4.40;;;;;;;16.90;39.05;100169.87;104567;1282;61359;-78
2024/01/03 09:19:19;;;;;;;12.90;4.60;;;;;;;16.86;39.15;100163.88;104588;1281;61362;-78
2024/01/03 09:21:45;;;;;;;12.00;4.50;;;;;;;16.83;39.22;100169.02;104294;1281;62149;-78
2024/01/03 09:24:11;;;;;;;8.40;4.00;;;;;;;16.80;39.23;100165.17;103692;1282;61378;-78
2024/01/03 09:26:37;;;;;;;12.30;4.60;;;;;;;16.76;39.25;100157.36;103592;1281;61288;-78
2024/01/03 09:29:05;;;;;;;13.10;4.60;;;;;;;16.74;39.32;100153.27;103668;1281;61245;-78
2024/01/03 09:31:31;;;;;;;11.80;4.60;;;;;;;16.70;39.32;100152.06;103668;1282;61348;-78
2024/01/03 09:33:57;;;;;;;11.60;5.00;;;;;;;16.67;39.41;100157.95;103614;1282;61395;-78
2024/01/03 09:36:22;;;;;;;11.50;4.60;;;;;;;16.64;39.40;100154.60;103933;1281;60191;-78
2024/01/03 09:38:48;;;;;;;14.50;4.80;;;;;;;16.62;39.44;100152.09;103646;1282;61423;-78
2024/01/03 09:41:14;;;;;;;10.50;4.70;;;;;;;16.59;39.45;100152.98;103432;1282;74372;-78
2024/01/03 09:43:44;;;;;;;13.10;4.40;;;;;;;16.55;39.47;100153.00;103478;1282;61372;-79
2024/01/03 09:46:10;;;;;;;7.80;4.20;;;;;;;16.53;39.51;100152.07;103792;1282;61366;-78
2024/01/03 09:48:49;;;;;;;11.40;4.50;;;;;;;16.51;39.57;100142.46;103147;1287;71191;-78
2024/01/03 09:51:15;;;;;;;11.40;4.40;;;;;;;16.48;39.50;100141.55;103920;1282;74970;-78
2024/01/03 09:53:40;;;;;;;13.80;4.40;;;;;;;16.46;39.61;100147.73;104220;1282;59349;-78
2024/01/03 09:56:06;;;;;;;10.70;4.30;;;;;;;16.44;39.66;100149.81;103646;1281;61982;-78
2024/01/03 09:58:33;;;;;;;10.10;4.20;;;;;;;16.42;39.63;100148.33;103684;1281;61430;-78
2024/01/03 10:00:59;;;;;;;9.10;4.50;;;;;;;16.40;39.79;100141.69;104204;1281;61250;-78
2024/01/03 10:03:24;;;;;;;10.80;5.30;;;;;;;16.38;39.64;100140.38;103715;1282;61395;-78
2024/01/03 10:06:13;;;;;;;9.00;4.50;;;;;;;16.37;39.79;100135.67;103542;1282;59990;-78
2024/01/03 10:08:44;;;;;;;9.70;4.40;;;;;;;16.35;39.78;100137.96;103464;1282;73482;-77
2024/01/03 10:11:20;;;;;;;7.50;4.30;;;;;;;16.33;39.79;100139.28;103460;1282;74505;-77
2024/01/03 10:13:53;;;;;;;10.80;4.80;;;;;;;16.30;39.79;100135.55;103295;1282;61135;-78
2024/01/03 10:16:28;;;;;;;8.70;4.00;;;;;;;16.29;39.83;100127.64;103907;1281;61379;-80
2024/01/03 10:19:16;;;;;;;8.70;4.40;;;;;;;16.28;39.84;100119.36;104433;1284;72491;-78
2024/01/03 10:21:51;;;;;;;10.20;4.40;;;;;;;16.25;39.99;100115.61;104026;1281;74712;-79
2024/01/03 10:24:18;;;;;;;8.80;4.30;;;;;;;16.23;39.90;100110.75;103828;1281;61248;-78
2024/01/03 10:26:45;;;;;;;9.40;4.30;;;;;;;16.22;39.95;100109.03;103824;1282;61374;-78
2024/01/03 10:29:15;;;;;;;10.00;4.30;;;;;;;16.22;39.92;100106.05;104138;1281;72440;-77
2024/01/03 10:31:41;;;;;;;9.40;4.10;;;;;;;16.20;40.07;100103.65;104152;1282;73722;-78
2024/01/03 10:34:15;;;;;;;9.70;4.40;;;;;;;16.19;40.08;100096.77;104222;1282;59952;-77
2024/01/03 10:36:41;;;;;;;9.50;3.90;;;;;;;16.19;40.10;100085.59;104299;1282;61455;-77
2024/01/03 10:39:08;;;;;;;12.10;4.60;;;;;;;16.18;40.20;100078.93;103979;1281;72547;-79
2024/01/03 10:41:34;;;;;;;7.50;3.90;;;;;;;16.18;40.06;100070.08;105939;1280;62651;-77
2024/01/03 10:44:01;;;;;;;7.00;4.10;;;;;;;16.17;40.12;100066.41;104339;1282;59564;-77
2024/01/03 10:46:29;;;;;;;9.40;4.10;;;;;;;16.16;40.14;100063.41;103928;1282;61008;-78
2024/01/03 10:48:56;;;;;;;10.30;4.20;;;;;;;16.15;40.21;100060.64;104523;1281;73381;-78
2024/01/03 10:51:23;;;;;;;8.80;4.30;;;;;;;16.15;40.23;100061.59;104454;1281;61367;-77
2024/01/03 10:53:51;;;;;;;8.10;4.30;;;;;;;16.14;40.30;100057.17;104628;1281;61346;-78
2024/01/03 10:56:17;;;;;;;7.60;4.20;;;;;;;16.14;40.20;100051.69;104538;1281;61332;-78
2024/01/03 10:58:42;;;;;;;7.40;4.00;;;;;;;16.13;40.25;100051.89;104330;1282;61385;-77
2024/01/03 11:01:27;;;;;;;6.40;4.10;;;;;;;16.13;40.29;100048.91;104355;1281;61295;-77
2024/01/03 11:04:30;;;;;;;8.00;4.20;;;;;;;16.12;40.34;100041.34;104048;1282;62071;-77
2024/01/03 11:07:14;;;;;;;6.90;3.90;;;;;;;16.11;40.38;100034.13;104587;1281;60970;-77
2024/01/03 11:09:41;;;;;;;6.30;4.20;;;;;;;16.10;40.31;100027.95;104431;1282;71540;-78
2024/01/03 11:12:11;;;;;;;8.50;4.60;;;;;;;16.10;40.35;100028.64;104040;1281;74420;-78